sensor_id;sensor_type;location;lat;lon;timestamp;P1;durP1;ratioP1;P2;durP2;ratioP2
2542;SDS011;1116;51.502;7.414;2023-02-01T00:01:28;25.93;;;12.80;;
2542;SDS011;1116;51.502;7.414;2023-02-01T00:03:59;24.30;;;12.97;;
2542;SDS011;1116;51.502;7.414;2023-02-01T00:06:33;23.10;;;13.33;;
2542;SDS011;1116;51.502;7.414;2023-02-01T00:09:04;22.77;;;12.63;;
2542;SDS011;1116;51.502;7.414;2023-02-01T00:11:35;22.37;;;13.20;;
2542;SDS011;1116;51.502;7.414;2023-02-01T00:14:10;26.00;;;13.07;;
2542;SDS011;1116;51.502;7.414;2023-02-01T00:16:47;24.60;;;12.17;;
2542;SDS011;1116;51.502;7.414;2023-02-01T00:19:18;21.20;;;11.20;;
2542;SDS011;1116;51.502;7.414;2023-02-01T00:21:51;19.53;;;10.43;;
2542;SDS011;1116;51.502;7.414;2023-02-01T00:24:24;24.57;;;10.77;;
2542;SDS011;1116;51.502;7.414;2023-02-01T00:26:55;21.30;;;9.20;;
2542;SDS011;1116;51.502;7.414;2023-02-01T00:29:33;24.40;;;10.20;;
2542;SDS011;1116;51.502;7.414;2023-02-01T00:32:04;17.60;;;9.03;;
2542;SDS011;1116;51.502;7.414;2023-02-01T00:34:35;16.47;;;9.13;;
2542;SDS011;1116;51.502;7.414;2023-02-01T00:37:11;18.97;;;9.13;;
2542;SDS011;1116;51.502;7.414;2023-02-01T00:39:42;22.10;;;8.33;;
2542;SDS011;1116;51.502;7.414;2023-02-01T00:42:15;17.30;;;7.07;;
2542;SDS011;1116;51.502;7.414;2023-02-01T00:44:46;21.90;;;8.17;;
2542;SDS011;1116;51.502;7.414;2023-02-01T00:47:17;13.50;;;6.20;;
2542;SDS011;1116;51.502;7.414;2023-02-01T00:49:48;18.00;;;6.93;;
2542;SDS011;1116;51.502;7.414;2023-02-01T00:52:21;14.70;;;6.30;;
2542;SDS011;1116;51.502;7.414;2023-02-01T00:54:52;15.33;;;5.87;;
2542;SDS011;1116;51.502;7.414;2023-02-01T00:57:25;17.33;;;5.17;;
2542;SDS011;1116;51.502;7.414;2023-02-01T00:59:58;15.67;;;4.87;;
2542;SDS011;1116;51.502;7.414;2023-02-01T01:02:29;16.90;;;5.47;;
2542;SDS011;1116;51.502;7.414;2023-02-01T01:05:00;14.70;;;4.87;;
2542;SDS011;1116;51.502;7.414;2023-02-01T01:07:33;14.67;;;5.07;;
2542;SDS011;1116;51.502;7.414;2023-02-01T01:10:05;16.97;;;5.57;;
2542;SDS011;1116;51.502;7.414;2023-02-01T01:12:37;14.03;;;4.80;;
2542;SDS011;1116;51.502;7.414;2023-02-01T01:15:09;17.87;;;5.10;;
2542;SDS011;1116;51.502;7.414;2023-02-01T01:17:40;11.50;;;4.90;;
2542;SDS011;1116;51.502;7.414;2023-02-01T01:20:11;12.50;;;5.17;;
2542;SDS011;1116;51.502;7.414;2023-02-01T01:22:47;13.23;;;4.60;;
2542;SDS011;1116;51.502;7.414;2023-02-01T01:25:18;13.33;;;4.63;;
2542;SDS011;1116;51.502;7.414;2023-02-01T01:30:36;13.83;;;4.10;;
2542;SDS011;1116;51.502;7.414;2023-02-01T01:33:06;14.50;;;4.73;;
2542;SDS011;1116;51.502;7.414;2023-02-01T01:35:37;18.13;;;5.00;;
2542;SDS011;1116;51.502;7.414;2023-02-01T01:38:11;17.43;;;5.27;;
2542;SDS011;1116;51.502;7.414;2023-02-01T01:40:45;15.23;;;5.03;;
2542;SDS011;1116;51.502;7.414;2023-02-01T01:43:20;13.67;;;4.80;;
2542;SDS011;1116;51.502;7.414;2023-02-01T01:45:51;10.87;;;4.10;;
2542;SDS011;1116;51.502;7.414;2023-02-01T01:48:23;9.67;;;4.37;;
2542;SDS011;1116;51.502;7.414;2023-02-01T01:50:58;10.70;;;5.07;;
2542;SDS011;1116;51.502;7.414;2023-02-01T01:53:36;13.73;;;5.33;;
2542;SDS011;1116;51.502;7.414;2023-02-01T01:56:14;13.70;;;5.37;;
2542;SDS011;1116;51.502;7.414;2023-02-01T01:58:45;13.30;;;5.03;;
2542;SDS011;1116;51.502;7.414;2023-02-01T02:01:16;17.90;;;5.03;;
2542;SDS011;1116;51.502;7.414;2023-02-01T02:03:47;14.33;;;5.30;;
2542;SDS011;1116;51.502;7.414;2023-02-01T02:06:20;15.30;;;5.00;;
2542;SDS011;1116;51.502;7.414;2023-02-01T02:09:00;15.30;;;5.60;;
2542;SDS011;1116;51.502;7.414;2023-02-01T02:11:33;13.70;;;5.30;;
2542;SDS011;1116;51.502;7.414;2023-02-01T02:14:04;12.80;;;5.40;;
2542;SDS011;1116;51.502;7.414;2023-02-01T02:16:46;16.73;;;5.70;;
2542;SDS011;1116;51.502;7.414;2023-02-01T02:19:32;15.27;;;5.50;;
2542;SDS011;1116;51.502;7.414;2023-02-01T02:22:31;15.77;;;5.57;;
2542;SDS011;1116;51.502;7.414;2023-02-01T02:25:28;15.10;;;5.40;;
2542;SDS011;1116;51.502;7.414;2023-02-01T02:28:13;17.10;;;6.10;;
2542;SDS011;1116;51.502;7.414;2023-02-01T02:31:05;13.50;;;5.53;;
2542;SDS011;1116;51.502;7.414;2023-02-01T02:33:59;13.27;;;5.17;;
2542;SDS011;1116;51.502;7.414;2023-02-01T02:36:41;16.80;;;5.73;;
2542;SDS011;1116;51.502;7.414;2023-02-01T02:39:20;11.27;;;5.20;;
2542;SDS011;1116;51.502;7.414;2023-02-01T02:42:00;12.93;;;4.80;;
2542;SDS011;1116;51.502;7.414;2023-02-01T02:44:53;13.80;;;4.93;;
2542;SDS011;1116;51.502;7.414;2023-02-01T02:47:48;13.43;;;5.00;;
2542;SDS011;1116;51.502;7.414;2023-02-01T02:50:29;15.43;;;5.03;;
2542;SDS011;1116;51.502;7.414;2023-02-01T02:53:19;16.10;;;4.73;;
2542;SDS011;1116;51.502;7.414;2023-02-01T02:56:07;13.87;;;5.80;;
2542;SDS011;1116;51.502;7.414;2023-02-01T02:58:57;14.43;;;5.50;;
2542;SDS011;1116;51.502;7.414;2023-02-01T03:01:41;12.27;;;4.93;;
2542;SDS011;1116;51.502;7.414;2023-02-01T03:04:25;10.20;;;4.43;;
2542;SDS011;1116;51.502;7.414;2023-02-01T03:07:09;12.33;;;3.90;;
2542;SDS011;1116;51.502;7.414;2023-02-01T03:09:44;12.83;;;4.90;;
2542;SDS011;1116;51.502;7.414;2023-02-01T03:12:17;12.17;;;3.80;;
2542;SDS011;1116;51.502;7.414;2023-02-01T03:15:03;13.10;;;4.27;;
2542;SDS011;1116;51.502;7.414;2023-02-01T03:17:40;19.13;;;5.33;;
2542;SDS011;1116;51.502;7.414;2023-02-01T03:20:13;11.90;;;3.93;;
2542;SDS011;1116;51.502;7.414;2023-02-01T03:22:50;15.17;;;4.03;;
2542;SDS011;1116;51.502;7.414;2023-02-01T03:25:25;16.50;;;3.80;;
2542;SDS011;1116;51.502;7.414;2023-02-01T03:28:03;16.03;;;3.57;;
2542;SDS011;1116;51.502;7.414;2023-02-01T03:30:37;14.93;;;3.90;;
2542;SDS011;1116;51.502;7.414;2023-02-01T03:33:13;10.40;;;3.20;;
2542;SDS011;1116;51.502;7.414;2023-02-01T03:35:57;18.40;;;4.57;;
2542;SDS011;1116;51.502;7.414;2023-02-01T03:38:41;13.73;;;5.00;;
2542;SDS011;1116;51.502;7.414;2023-02-01T03:41:20;12.03;;;3.50;;
2542;SDS011;1116;51.502;7.414;2023-02-01T03:44:06;11.50;;;3.30;;
2542;SDS011;1116;51.502;7.414;2023-02-01T03:46:45;11.27;;;3.13;;
2542;SDS011;1116;51.502;7.414;2023-02-01T03:49:21;12.83;;;3.50;;
2542;SDS011;1116;51.502;7.414;2023-02-01T03:51:56;9.30;;;3.10;;
2542;SDS011;1116;51.502;7.414;2023-02-01T03:54:31;14.20;;;3.43;;
2542;SDS011;1116;51.502;7.414;2023-02-01T03:57:05;14.30;;;3.30;;
2542;SDS011;1116;51.502;7.414;2023-02-01T03:59:39;14.67;;;3.93;;
2542;SDS011;1116;51.502;7.414;2023-02-01T04:02:11;10.87;;;4.20;;
2542;SDS011;1116;51.502;7.414;2023-02-01T04:04:44;13.33;;;3.63;;
2542;SDS011;1116;51.502;7.414;2023-02-01T04:07:15;16.60;;;4.43;;
2542;SDS011;1116;51.502;7.414;2023-02-01T04:09:50;12.63;;;3.70;;
2542;SDS011;1116;51.502;7.414;2023-02-01T04:12:21;10.43;;;3.50;;
2542;SDS011;1116;51.502;7.414;2023-02-01T04:14:52;14.47;;;3.63;;
2542;SDS011;1116;51.502;7.414;2023-02-01T04:17:23;17.07;;;4.07;;
2542;SDS011;1116;51.502;7.414;2023-02-01T04:19:57;13.60;;;4.47;;
2542;SDS011;1116;51.502;7.414;2023-02-01T04:22:28;10.43;;;3.73;;
2542;SDS011;1116;51.502;7.414;2023-02-01T04:25:01;12.40;;;3.30;;
2542;SDS011;1116;51.502;7.414;2023-02-01T04:27:33;13.73;;;4.10;;
2542;SDS011;1116;51.502;7.414;2023-02-01T04:30:05;13.47;;;3.80;;
2542;SDS011;1116;51.502;7.414;2023-02-01T04:32:37;11.37;;;3.07;;
2542;SDS011;1116;51.502;7.414;2023-02-01T04:35:09;13.40;;;3.77;;
2542;SDS011;1116;51.502;7.414;2023-02-01T04:37:40;17.70;;;4.10;;
2542;SDS011;1116;51.502;7.414;2023-02-01T04:40:13;13.00;;;3.57;;
2542;SDS011;1116;51.502;7.414;2023-02-01T04:42:44;13.40;;;3.33;;
2542;SDS011;1116;51.502;7.414;2023-02-01T04:45:15;15.60;;;3.90;;
2542;SDS011;1116;51.502;7.414;2023-02-01T04:47:46;17.57;;;4.20;;
2542;SDS011;1116;51.502;7.414;2023-02-01T04:50:17;14.60;;;3.77;;
2542;SDS011;1116;51.502;7.414;2023-02-01T04:52:49;14.30;;;3.67;;
2542;SDS011;1116;51.502;7.414;2023-02-01T04:55:22;14.10;;;4.57;;
2542;SDS011;1116;51.502;7.414;2023-02-01T04:57:53;16.00;;;4.60;;
2542;SDS011;1116;51.502;7.414;2023-02-01T05:00:24;18.20;;;4.07;;
2542;SDS011;1116;51.502;7.414;2023-02-01T05:02:55;14.97;;;4.30;;
2542;SDS011;1116;51.502;7.414;2023-02-01T05:05:26;17.40;;;4.70;;
2542;SDS011;1116;51.502;7.414;2023-02-01T05:07:57;14.80;;;4.03;;
2542;SDS011;1116;51.502;7.414;2023-02-01T05:10:31;13.80;;;4.20;;
2542;SDS011;1116;51.502;7.414;2023-02-01T05:13:01;13.70;;;4.57;;
2542;SDS011;1116;51.502;7.414;2023-02-01T05:15:45;15.20;;;4.17;;
2542;SDS011;1116;51.502;7.414;2023-02-01T05:18:16;9.00;;;3.40;;
2542;SDS011;1116;51.502;7.414;2023-02-01T05:20:47;13.80;;;4.70;;
2542;SDS011;1116;51.502;7.414;2023-02-01T05:23:18;14.90;;;4.50;;
2542;SDS011;1116;51.502;7.414;2023-02-01T05:25:51;11.87;;;3.70;;
2542;SDS011;1116;51.502;7.414;2023-02-01T05:28:22;16.63;;;4.80;;
2542;SDS011;1116;51.502;7.414;2023-02-01T05:30:53;19.33;;;4.73;;
2542;SDS011;1116;51.502;7.414;2023-02-01T05:33:24;13.40;;;4.00;;
2542;SDS011;1116;51.502;7.414;2023-02-01T05:35:55;16.03;;;4.63;;
2542;SDS011;1116;51.502;7.414;2023-02-01T05:38:26;19.70;;;5.07;;
2542;SDS011;1116;51.502;7.414;2023-02-01T05:40:59;15.20;;;4.30;;
2542;SDS011;1116;51.502;7.414;2023-02-01T05:43:30;12.97;;;4.20;;
2542;SDS011;1116;51.502;7.414;2023-02-01T05:46:01;14.40;;;3.43;;
2542;SDS011;1116;51.502;7.414;2023-02-01T05:48:32;13.57;;;3.83;;
2542;SDS011;1116;51.502;7.414;2023-02-01T05:51:03;14.10;;;3.80;;
2542;SDS011;1116;51.502;7.414;2023-02-01T05:53:33;9.80;;;3.50;;
2542;SDS011;1116;51.502;7.414;2023-02-01T05:56:07;17.50;;;4.60;;
2542;SDS011;1116;51.502;7.414;2023-02-01T05:58:38;16.50;;;4.00;;
2542;SDS011;1116;51.502;7.414;2023-02-01T06:01:09;17.50;;;5.00;;
2542;SDS011;1116;51.502;7.414;2023-02-01T06:03:40;12.80;;;3.63;;
2542;SDS011;1116;51.502;7.414;2023-02-01T06:06:11;14.03;;;4.70;;
2542;SDS011;1116;51.502;7.414;2023-02-01T06:08:42;13.20;;;3.90;;
2542;SDS011;1116;51.502;7.414;2023-02-01T06:11:15;18.27;;;4.70;;
2542;SDS011;1116;51.502;7.414;2023-02-01T06:13:58;17.80;;;4.57;;
2542;SDS011;1116;51.502;7.414;2023-02-01T06:16:29;25.57;;;6.87;;
2542;SDS011;1116;51.502;7.414;2023-02-01T06:19:00;16.20;;;4.20;;
2542;SDS011;1116;51.502;7.414;2023-02-01T06:21:34;23.13;;;4.60;;
2542;SDS011;1116;51.502;7.414;2023-02-01T06:24:07;13.13;;;4.37;;
2542;SDS011;1116;51.502;7.414;2023-02-01T06:26:41;15.77;;;5.23;;
2542;SDS011;1116;51.502;7.414;2023-02-01T06:29:14;16.90;;;5.80;;
2542;SDS011;1116;51.502;7.414;2023-02-01T06:31:44;15.97;;;4.70;;
2542;SDS011;1116;51.502;7.414;2023-02-01T06:34:15;16.33;;;3.73;;
2542;SDS011;1116;51.502;7.414;2023-02-01T06:36:48;16.97;;;4.40;;
2542;SDS011;1116;51.502;7.414;2023-02-01T06:39:20;16.60;;;4.53;;
2542;SDS011;1116;51.502;7.414;2023-02-01T06:41:54;14.73;;;4.37;;
2542;SDS011;1116;51.502;7.414;2023-02-01T06:44:25;16.23;;;4.50;;
2542;SDS011;1116;51.502;7.414;2023-02-01T06:46:55;14.20;;;4.47;;
2542;SDS011;1116;51.502;7.414;2023-02-01T06:49:27;14.70;;;4.40;;
2542;SDS011;1116;51.502;7.414;2023-02-01T06:51:58;17.97;;;4.53;;
2542;SDS011;1116;51.502;7.414;2023-02-01T06:54:29;20.30;;;5.00;;
2542;SDS011;1116;51.502;7.414;2023-02-01T06:57:04;15.63;;;4.73;;
2542;SDS011;1116;51.502;7.414;2023-02-01T06:59:35;13.83;;;4.17;;
2542;SDS011;1116;51.502;7.414;2023-02-01T07:02:08;12.40;;;5.10;;
2542;SDS011;1116;51.502;7.414;2023-02-01T07:04:40;12.13;;;4.27;;
2542;SDS011;1116;51.502;7.414;2023-02-01T07:07:11;18.70;;;4.70;;
2542;SDS011;1116;51.502;7.414;2023-02-01T07:09:42;22.20;;;4.80;;
2542;SDS011;1116;51.502;7.414;2023-02-01T07:12:18;17.90;;;5.17;;
2542;SDS011;1116;51.502;7.414;2023-02-01T07:14:50;18.23;;;4.50;;
2542;SDS011;1116;51.502;7.414;2023-02-01T07:17:21;15.50;;;4.10;;
2542;SDS011;1116;51.502;7.414;2023-02-01T07:19:52;16.10;;;4.77;;
2542;SDS011;1116;51.502;7.414;2023-02-01T07:22:22;21.50;;;4.93;;
2542;SDS011;1116;51.502;7.414;2023-02-01T07:24:53;12.67;;;3.97;;
2542;SDS011;1116;51.502;7.414;2023-02-01T07:27:26;14.43;;;4.90;;
2542;SDS011;1116;51.502;7.414;2023-02-01T07:30:00;12.97;;;4.00;;
2542;SDS011;1116;51.502;7.414;2023-02-01T07:32:31;19.20;;;4.53;;
2542;SDS011;1116;51.502;7.414;2023-02-01T07:35:02;17.23;;;4.43;;
2542;SDS011;1116;51.502;7.414;2023-02-01T07:37:37;16.57;;;4.30;;
2542;SDS011;1116;51.502;7.414;2023-02-01T07:40:08;15.97;;;4.70;;
2542;SDS011;1116;51.502;7.414;2023-02-01T07:42:42;15.53;;;4.40;;
2542;SDS011;1116;51.502;7.414;2023-02-01T07:45:16;14.40;;;4.50;;
2542;SDS011;1116;51.502;7.414;2023-02-01T07:47:48;15.93;;;5.23;;
2542;SDS011;1116;51.502;7.414;2023-02-01T07:50:21;13.77;;;4.47;;
2542;SDS011;1116;51.502;7.414;2023-02-01T07:52:52;15.70;;;4.50;;
2542;SDS011;1116;51.502;7.414;2023-02-01T07:55:23;26.07;;;5.20;;
2542;SDS011;1116;51.502;7.414;2023-02-01T07:57:59;16.30;;;6.00;;
2542;SDS011;1116;51.502;7.414;2023-02-01T08:00:29;13.90;;;5.40;;
2542;SDS011;1116;51.502;7.414;2023-02-01T08:03:13;19.93;;;7.20;;
2542;SDS011;1116;51.502;7.414;2023-02-01T08:05:44;13.10;;;5.43;;
2542;SDS011;1116;51.502;7.414;2023-02-01T08:08:14;19.17;;;5.83;;
2542;SDS011;1116;51.502;7.414;2023-02-01T08:10:47;20.23;;;5.60;;
2542;SDS011;1116;51.502;7.414;2023-02-01T08:13:27;15.33;;;6.10;;
2542;SDS011;1116;51.502;7.414;2023-02-01T08:16:02;13.77;;;5.23;;
2542;SDS011;1116;51.502;7.414;2023-02-01T08:18:35;16.50;;;6.50;;
2542;SDS011;1116;51.502;7.414;2023-02-01T08:21:07;14.93;;;6.27;;
2542;SDS011;1116;51.502;7.414;2023-02-01T08:23:40;18.97;;;6.90;;
2542;SDS011;1116;51.502;7.414;2023-02-01T08:26:12;16.40;;;5.97;;
2542;SDS011;1116;51.502;7.414;2023-02-01T08:28:48;17.67;;;6.03;;
2542;SDS011;1116;51.502;7.414;2023-02-01T08:31:22;18.17;;;6.77;;
2542;SDS011;1116;51.502;7.414;2023-02-01T08:33:54;19.43;;;6.57;;
2542;SDS011;1116;51.502;7.414;2023-02-01T08:36:27;23.07;;;6.90;;
2542;SDS011;1116;51.502;7.414;2023-02-01T08:38:59;19.00;;;6.17;;
2542;SDS011;1116;51.502;7.414;2023-02-01T08:41:33;18.93;;;6.50;;
2542;SDS011;1116;51.502;7.414;2023-02-01T08:44:09;22.77;;;6.80;;
2542;SDS011;1116;51.502;7.414;2023-02-01T08:46:39;14.33;;;6.07;;
2542;SDS011;1116;51.502;7.414;2023-02-01T08:49:10;21.43;;;6.43;;
2542;SDS011;1116;51.502;7.414;2023-02-01T08:51:41;20.57;;;6.03;;
2542;SDS011;1116;51.502;7.414;2023-02-01T08:54:12;15.53;;;5.63;;
2542;SDS011;1116;51.502;7.414;2023-02-01T08:56:42;18.13;;;6.93;;
2542;SDS011;1116;51.502;7.414;2023-02-01T08:59:19;19.30;;;6.73;;
2542;SDS011;1116;51.502;7.414;2023-02-01T09:01:50;20.23;;;6.50;;
2542;SDS011;1116;51.502;7.414;2023-02-01T09:04:21;19.93;;;6.13;;
2542;SDS011;1116;51.502;7.414;2023-02-01T09:06:52;17.03;;;6.33;;
2542;SDS011;1116;51.502;7.414;2023-02-01T09:09:24;18.73;;;6.23;;
2542;SDS011;1116;51.502;7.414;2023-02-01T09:11:57;17.13;;;6.60;;
2542;SDS011;1116;51.502;7.414;2023-02-01T09:14:30;15.50;;;6.10;;
2542;SDS011;1116;51.502;7.414;2023-02-01T09:17:01;15.23;;;5.83;;
2542;SDS011;1116;51.502;7.414;2023-02-01T09:19:35;16.73;;;5.80;;
2542;SDS011;1116;51.502;7.414;2023-02-01T09:22:09;17.07;;;5.83;;
2542;SDS011;1116;51.502;7.414;2023-02-01T09:24:40;19.90;;;6.23;;
2542;SDS011;1116;51.502;7.414;2023-02-01T09:27:11;21.80;;;5.70;;
2542;SDS011;1116;51.502;7.414;2023-02-01T09:29:44;18.00;;;5.80;;
2542;SDS011;1116;51.502;7.414;2023-02-01T09:32:19;19.50;;;6.60;;
2542;SDS011;1116;51.502;7.414;2023-02-01T09:34:51;21.87;;;6.60;;
2542;SDS011;1116;51.502;7.414;2023-02-01T09:37:22;17.70;;;6.30;;
2542;SDS011;1116;51.502;7.414;2023-02-01T09:39:53;23.67;;;6.60;;
2542;SDS011;1116;51.502;7.414;2023-02-01T09:42:28;22.77;;;6.40;;
2542;SDS011;1116;51.502;7.414;2023-02-01T09:45:19;20.00;;;6.07;;
2542;SDS011;1116;51.502;7.414;2023-02-01T09:47:54;16.40;;;5.70;;
2542;SDS011;1116;51.502;7.414;2023-02-01T09:50:30;16.17;;;5.90;;
2542;SDS011;1116;51.502;7.414;2023-02-01T09:53:05;12.33;;;5.13;;
2542;SDS011;1116;51.502;7.414;2023-02-01T09:55:43;12.83;;;5.70;;
2542;SDS011;1116;51.502;7.414;2023-02-01T09:58:16;15.17;;;6.50;;
2542;SDS011;1116;51.502;7.414;2023-02-01T10:00:58;14.03;;;6.77;;
2542;SDS011;1116;51.502;7.414;2023-02-01T10:03:32;21.03;;;6.73;;
2542;SDS011;1116;51.502;7.414;2023-02-01T10:09:14;13.77;;;4.90;;
2542;SDS011;1116;51.502;7.414;2023-02-01T10:11:54;13.33;;;5.50;;
2542;SDS011;1116;51.502;7.414;2023-02-01T10:14:49;21.90;;;6.43;;
2542;SDS011;1116;51.502;7.414;2023-02-01T10:17:35;14.33;;;5.90;;
2542;SDS011;1116;51.502;7.414;2023-02-01T10:20:20;14.50;;;5.97;;
2542;SDS011;1116;51.502;7.414;2023-02-01T10:22:58;19.80;;;6.60;;
2542;SDS011;1116;51.502;7.414;2023-02-01T10:25:58;18.07;;;6.40;;
2542;SDS011;1116;51.502;7.414;2023-02-01T10:28:35;16.50;;;6.43;;
2542;SDS011;1116;51.502;7.414;2023-02-01T10:31:08;16.03;;;5.87;;
2542;SDS011;1116;51.502;7.414;2023-02-01T10:33:44;15.90;;;5.80;;
2542;SDS011;1116;51.502;7.414;2023-02-01T10:36:19;15.80;;;6.50;;
2542;SDS011;1116;51.502;7.414;2023-02-01T10:38:56;16.60;;;6.37;;
2542;SDS011;1116;51.502;7.414;2023-02-01T10:41:32;14.20;;;5.23;;
2542;SDS011;1116;51.502;7.414;2023-02-01T10:44:05;10.00;;;4.87;;
2542;SDS011;1116;51.502;7.414;2023-02-01T10:46:41;15.03;;;5.97;;
2542;SDS011;1116;51.502;7.414;2023-02-01T10:49:16;13.73;;;5.60;;
2542;SDS011;1116;51.502;7.414;2023-02-01T10:51:51;15.33;;;5.30;;
2542;SDS011;1116;51.502;7.414;2023-02-01T10:54:32;23.70;;;6.77;;
2542;SDS011;1116;51.502;7.414;2023-02-01T10:57:06;14.60;;;5.67;;
2542;SDS011;1116;51.502;7.414;2023-02-01T10:59:38;17.50;;;5.50;;
2542;SDS011;1116;51.502;7.414;2023-02-01T11:02:15;10.30;;;4.87;;
2542;SDS011;1116;51.502;7.414;2023-02-01T11:05:01;13.67;;;4.57;;
2542;SDS011;1116;51.502;7.414;2023-02-01T11:07:36;16.00;;;5.37;;
2542;SDS011;1116;51.502;7.414;2023-02-01T11:10:12;16.30;;;5.53;;
2542;SDS011;1116;51.502;7.414;2023-02-01T11:13:11;13.67;;;5.00;;
2542;SDS011;1116;51.502;7.414;2023-02-01T11:15:45;16.97;;;5.80;;
2542;SDS011;1116;51.502;7.414;2023-02-01T11:18:26;18.40;;;6.20;;
2542;SDS011;1116;51.502;7.414;2023-02-01T11:21:00;13.37;;;4.77;;
2542;SDS011;1116;51.502;7.414;2023-02-01T11:23:32;12.80;;;4.50;;
2542;SDS011;1116;51.502;7.414;2023-02-01T11:26:10;17.07;;;5.63;;
2542;SDS011;1116;51.502;7.414;2023-02-01T11:28:46;17.40;;;5.37;;
2542;SDS011;1116;51.502;7.414;2023-02-01T11:31:22;14.53;;;4.80;;
2542;SDS011;1116;51.502;7.414;2023-02-01T11:33:55;17.43;;;5.37;;
2542;SDS011;1116;51.502;7.414;2023-02-01T11:36:33;9.77;;;4.33;;
2542;SDS011;1116;51.502;7.414;2023-02-01T11:39:24;13.13;;;4.87;;
2542;SDS011;1116;51.502;7.414;2023-02-01T11:41:58;15.80;;;5.03;;
2542;SDS011;1116;51.502;7.414;2023-02-01T11:44:35;15.30;;;4.53;;
2542;SDS011;1116;51.502;7.414;2023-02-01T11:47:16;16.43;;;5.37;;
2542;SDS011;1116;51.502;7.414;2023-02-01T11:49:56;11.80;;;4.93;;
2542;SDS011;1116;51.502;7.414;2023-02-01T11:52:38;13.37;;;5.17;;
2542;SDS011;1116;51.502;7.414;2023-02-01T11:55:28;21.13;;;4.97;;
2542;SDS011;1116;51.502;7.414;2023-02-01T11:58:17;12.80;;;5.73;;
2542;SDS011;1116;51.502;7.414;2023-02-01T12:01:01;17.00;;;5.17;;
2542;SDS011;1116;51.502;7.414;2023-02-01T12:03:54;13.07;;;4.83;;
2542;SDS011;1116;51.502;7.414;2023-02-01T12:06:47;19.57;;;6.07;;
2542;SDS011;1116;51.502;7.414;2023-02-01T12:09:31;15.17;;;4.70;;
2542;SDS011;1116;51.502;7.414;2023-02-01T12:12:13;17.37;;;5.33;;
2542;SDS011;1116;51.502;7.414;2023-02-01T12:14:59;14.20;;;5.00;;
2542;SDS011;1116;51.502;7.414;2023-02-01T12:17:47;11.43;;;4.77;;
2542;SDS011;1116;51.502;7.414;2023-02-01T12:20:41;16.20;;;5.37;;
2542;SDS011;1116;51.502;7.414;2023-02-01T12:23:44;11.77;;;5.13;;
2542;SDS011;1116;51.502;7.414;2023-02-01T12:29:46;15.90;;;5.33;;
2542;SDS011;1116;51.502;7.414;2023-02-01T12:32:31;18.50;;;5.43;;
2542;SDS011;1116;51.502;7.414;2023-02-01T12:35:13;18.80;;;5.27;;
2542;SDS011;1116;51.502;7.414;2023-02-01T12:37:53;19.13;;;5.33;;
2542;SDS011;1116;51.502;7.414;2023-02-01T12:40:41;18.80;;;5.30;;
2542;SDS011;1116;51.502;7.414;2023-02-01T12:43:25;14.30;;;5.17;;
2542;SDS011;1116;51.502;7.414;2023-02-01T12:46:06;14.60;;;5.20;;
2542;SDS011;1116;51.502;7.414;2023-02-01T12:48:41;10.47;;;4.87;;
2542;SDS011;1116;51.502;7.414;2023-02-01T12:51:27;14.50;;;6.10;;
2542;SDS011;1116;51.502;7.414;2023-02-01T12:54:03;15.47;;;5.90;;
2542;SDS011;1116;51.502;7.414;2023-02-01T12:56:41;14.07;;;5.27;;
2542;SDS011;1116;51.502;7.414;2023-02-01T12:59:20;16.77;;;5.40;;
2542;SDS011;1116;51.502;7.414;2023-02-01T13:01:56;23.27;;;5.93;;
2542;SDS011;1116;51.502;7.414;2023-02-01T13:04:35;12.57;;;4.53;;
2542;SDS011;1116;51.502;7.414;2023-02-01T13:07:21;14.80;;;5.13;;
2542;SDS011;1116;51.502;7.414;2023-02-01T13:09:56;14.67;;;4.57;;
2542;SDS011;1116;51.502;7.414;2023-02-01T13:12:32;20.03;;;4.63;;
2542;SDS011;1116;51.502;7.414;2023-02-01T13:15:13;13.23;;;5.40;;
2542;SDS011;1116;51.502;7.414;2023-02-01T13:17:49;15.27;;;4.67;;
2542;SDS011;1116;51.502;7.414;2023-02-01T13:20:23;14.23;;;4.80;;
2542;SDS011;1116;51.502;7.414;2023-02-01T13:22:59;17.00;;;4.63;;
2542;SDS011;1116;51.502;7.414;2023-02-01T13:25:35;16.30;;;4.23;;
2542;SDS011;1116;51.502;7.414;2023-02-01T13:28:17;16.20;;;4.80;;
2542;SDS011;1116;51.502;7.414;2023-02-01T13:31:20;16.73;;;5.43;;
2542;SDS011;1116;51.502;7.414;2023-02-01T13:34:31;19.00;;;5.60;;
2542;SDS011;1116;51.502;7.414;2023-02-01T13:37:23;16.03;;;4.70;;
2542;SDS011;1116;51.502;7.414;2023-02-01T13:40:07;16.07;;;3.80;;
2542;SDS011;1116;51.502;7.414;2023-02-01T13:42:48;20.60;;;4.40;;
2542;SDS011;1116;51.502;7.414;2023-02-01T13:45:22;15.37;;;4.37;;
2542;SDS011;1116;51.502;7.414;2023-02-01T13:48:02;16.60;;;4.80;;
2542;SDS011;1116;51.502;7.414;2023-02-01T13:50:35;14.40;;;3.30;;
2542;SDS011;1116;51.502;7.414;2023-02-01T13:53:13;11.97;;;3.40;;
2542;SDS011;1116;51.502;7.414;2023-02-01T13:55:49;19.40;;;3.80;;
2542;SDS011;1116;51.502;7.414;2023-02-01T13:58:30;18.80;;;3.97;;
2542;SDS011;1116;51.502;7.414;2023-02-01T14:07:19;19.23;;;5.17;;
2542;SDS011;1116;51.502;7.414;2023-02-01T14:09:51;14.13;;;4.63;;
2542;SDS011;1116;51.502;7.414;2023-02-01T14:15:24;15.37;;;4.50;;
2542;SDS011;1116;51.502;7.414;2023-02-01T14:17:59;11.00;;;4.20;;
2542;SDS011;1116;51.502;7.414;2023-02-01T14:20:41;17.00;;;4.93;;
2542;SDS011;1116;51.502;7.414;2023-02-01T14:23:24;12.97;;;4.10;;
2542;SDS011;1116;51.502;7.414;2023-02-01T14:28:52;7.70;;;3.60;;
2542;SDS011;1116;51.502;7.414;2023-02-01T14:31:34;15.87;;;4.57;;
2542;SDS011;1116;51.502;7.414;2023-02-01T14:34:16;11.63;;;4.83;;
2542;SDS011;1116;51.502;7.414;2023-02-01T14:36:54;12.10;;;4.20;;
2542;SDS011;1116;51.502;7.414;2023-02-01T14:39:32;16.03;;;4.20;;
2542;SDS011;1116;51.502;7.414;2023-02-01T14:42:19;15.93;;;4.13;;
2542;SDS011;1116;51.502;7.414;2023-02-01T14:44:52;15.70;;;4.67;;
2542;SDS011;1116;51.502;7.414;2023-02-01T14:47:30;14.77;;;4.30;;
2542;SDS011;1116;51.502;7.414;2023-02-01T14:50:22;14.50;;;4.10;;
2542;SDS011;1116;51.502;7.414;2023-02-01T14:55:57;12.63;;;3.70;;
2542;SDS011;1116;51.502;7.414;2023-02-01T14:58:34;13.40;;;3.70;;
2542;SDS011;1116;51.502;7.414;2023-02-01T15:01:17;16.37;;;3.97;;
2542;SDS011;1116;51.502;7.414;2023-02-01T15:03:56;19.70;;;3.90;;
2542;SDS011;1116;51.502;7.414;2023-02-01T15:06:33;10.20;;;3.87;;
2542;SDS011;1116;51.502;7.414;2023-02-01T15:09:11;12.97;;;3.97;;
2542;SDS011;1116;51.502;7.414;2023-02-01T15:11:54;7.93;;;3.60;;
2542;SDS011;1116;51.502;7.414;2023-02-01T15:14:27;11.90;;;4.37;;
2542;SDS011;1116;51.502;7.414;2023-02-01T15:17:00;13.10;;;4.73;;
2542;SDS011;1116;51.502;7.414;2023-02-01T15:19:31;10.13;;;3.97;;
2542;SDS011;1116;51.502;7.414;2023-02-01T15:22:02;11.53;;;3.53;;
2542;SDS011;1116;51.502;7.414;2023-02-01T15:24:35;14.00;;;3.77;;
2542;SDS011;1116;51.502;7.414;2023-02-01T15:27:06;9.87;;;3.73;;
2542;SDS011;1116;51.502;7.414;2023-02-01T15:29:39;12.87;;;3.50;;
2542;SDS011;1116;51.502;7.414;2023-02-01T15:35:01;14.60;;;4.57;;
2542;SDS011;1116;51.502;7.414;2023-02-01T15:37:32;11.23;;;3.50;;
2542;SDS011;1116;51.502;7.414;2023-02-01T15:40:17;14.13;;;4.53;;
2542;SDS011;1116;51.502;7.414;2023-02-01T15:42:52;15.73;;;5.70;;
2542;SDS011;1116;51.502;7.414;2023-02-01T15:45:25;14.40;;;4.90;;
2542;SDS011;1116;51.502;7.414;2023-02-01T15:48:04;14.00;;;5.17;;
2542;SDS011;1116;51.502;7.414;2023-02-01T15:50:35;13.60;;;5.30;;
2542;SDS011;1116;51.502;7.414;2023-02-01T15:53:12;12.27;;;4.33;;
2542;SDS011;1116;51.502;7.414;2023-02-01T15:55:53;14.20;;;5.10;;
2542;SDS011;1116;51.502;7.414;2023-02-01T15:58:27;15.87;;;4.87;;
2542;SDS011;1116;51.502;7.414;2023-02-01T16:00:59;11.87;;;4.03;;
2542;SDS011;1116;51.502;7.414;2023-02-01T16:03:35;14.63;;;5.10;;
2542;SDS011;1116;51.502;7.414;2023-02-01T16:06:11;11.43;;;4.17;;
2542;SDS011;1116;51.502;7.414;2023-02-01T16:09:00;13.10;;;5.80;;
2542;SDS011;1116;51.502;7.414;2023-02-01T16:11:39;13.43;;;5.07;;
2542;SDS011;1116;51.502;7.414;2023-02-01T16:14:15;15.20;;;4.47;;
2542;SDS011;1116;51.502;7.414;2023-02-01T16:16:49;19.33;;;4.60;;
2542;SDS011;1116;51.502;7.414;2023-02-01T16:19:20;12.53;;;4.50;;
2542;SDS011;1116;51.502;7.414;2023-02-01T16:21:55;14.60;;;4.83;;